sensor_id;sensor_type;location;lat;lon;timestamp;P1;durP1;ratioP1;P2;durP2;ratioP2
56363;SDS011;42261;52.094;4.326;2023-09-12T00:01:16;38.40;;;20.33;;
56363;SDS011;42261;52.094;4.326;2023-09-12T00:04:00;38.03;;;23.38;;
56363;SDS011;42261;52.094;4.326;2023-09-12T00:06:44;39.35;;;22.35;;
56363;SDS011;42261;52.094;4.326;2023-09-12T00:09:28;38.83;;;23.08;;
56363;SDS011;42261;52.094;4.326;2023-09-12T00:12:14;38.10;;;21.35;;
56363;SDS011;42261;52.094;4.326;2023-09-12T00:14:58;39.05;;;21.88;;
56363;SDS011;42261;52.094;4.326;2023-09-12T00:17:42;39.13;;;21.42;;
56363;SDS011;42261;52.094;4.326;2023-09-12T00:20:26;38.15;;;21.98;;
56363;SDS011;42261;52.094;4.326;2023-09-12T00:23:10;35.80;;;21.70;;
56363;SDS011;42261;52.094;4.326;2023-09-12T00:25:54;37.08;;;21.45;;
56363;SDS011;42261;52.094;4.326;2023-09-12T00:28:38;38.33;;;21.83;;
56363;SDS011;42261;52.094;4.326;2023-09-12T00:31:22;37.78;;;20.40;;
56363;SDS011;42261;52.094;4.326;2023-09-12T00:34:06;37.00;;;20.20;;
56363;SDS011;42261;52.094;4.326;2023-09-12T00:36:50;34.05;;;19.73;;
56363;SDS011;42261;52.094;4.326;2023-09-12T00:39:34;31.73;;;17.88;;
56363;SDS011;42261;52.094;4.326;2023-09-12T00:42:18;31.80;;;17.10;;
56363;SDS011;42261;52.094;4.326;2023-09-12T00:45:02;30.30;;;16.27;;
56363;SDS011;42261;52.094;4.326;2023-09-12T00:47:47;31.45;;;19.05;;
56363;SDS011;42261;52.094;4.326;2023-09-12T00:50:31;30.10;;;16.52;;
56363;SDS011;42261;52.094;4.326;2023-09-12T00:53:16;29.00;;;16.00;;
56363;SDS011;42261;52.094;4.326;2023-09-12T00:56:01;27.35;;;15.65;;
56363;SDS011;42261;52.094;4.326;2023-09-12T00:58:45;26.33;;;15.77;;
56363;SDS011;42261;52.094;4.326;2023-09-12T01:01:30;25.73;;;13.73;;
56363;SDS011;42261;52.094;4.326;2023-09-12T01:04:15;24.50;;;13.13;;
56363;SDS011;42261;52.094;4.326;2023-09-12T01:06:59;22.25;;;13.73;;
56363;SDS011;42261;52.094;4.326;2023-09-12T01:09:43;20.20;;;12.13;;
56363;SDS011;42261;52.094;4.326;2023-09-12T01:12:27;18.52;;;11.32;;
56363;SDS011;42261;52.094;4.326;2023-09-12T01:15:11;18.45;;;11.75;;
56363;SDS011;42261;52.094;4.326;2023-09-12T01:17:59;21.60;;;12.02;;
56363;SDS011;42261;52.094;4.326;2023-09-12T01:20:56;19.42;;;11.05;;
56363;SDS011;42261;52.094;4.326;2023-09-12T01:29:45;15.15;;;9.07;;
56363;SDS011;42261;52.094;4.326;2023-09-12T01:32:30;17.65;;;9.23;;
56363;SDS011;42261;52.094;4.326;2023-09-12T01:35:15;17.77;;;9.68;;
56363;SDS011;42261;52.094;4.326;2023-09-12T01:37:59;17.63;;;10.52;;
56363;SDS011;42261;52.094;4.326;2023-09-12T01:40:49;19.92;;;9.55;;
56363;SDS011;42261;52.094;4.326;2023-09-12T01:43:34;16.45;;;10.27;;
56363;SDS011;42261;52.094;4.326;2023-09-12T01:46:21;18.67;;;11.00;;
56363;SDS011;42261;52.094;4.326;2023-09-12T01:49:06;19.38;;;10.55;;
56363;SDS011;42261;52.094;4.326;2023-09-12T01:51:51;20.17;;;11.82;;
56363;SDS011;42261;52.094;4.326;2023-09-12T01:54:35;15.82;;;10.45;;
56363;SDS011;42261;52.094;4.326;2023-09-12T01:57:20;19.10;;;10.82;;
56363;SDS011;42261;52.094;4.326;2023-09-12T02:00:04;24.05;;;11.20;;
56363;SDS011;42261;52.094;4.326;2023-09-12T02:02:50;19.85;;;10.50;;
56363;SDS011;42261;52.094;4.326;2023-09-12T02:05:34;19.50;;;10.43;;
56363;SDS011;42261;52.094;4.326;2023-09-12T02:08:19;16.90;;;10.35;;
56363;SDS011;42261;52.094;4.326;2023-09-12T02:11:03;19.20;;;10.55;;
56363;SDS011;42261;52.094;4.326;2023-09-12T02:13:48;17.90;;;10.68;;
56363;SDS011;42261;52.094;4.326;2023-09-12T02:16:35;16.85;;;11.18;;
56363;SDS011;42261;52.094;4.326;2023-09-12T02:19:20;21.23;;;10.93;;
56363;SDS011;42261;52.094;4.326;2023-09-12T02:22:04;20.45;;;11.23;;
56363;SDS011;42261;52.094;4.326;2023-09-12T02:24:48;20.33;;;11.57;;
56363;SDS011;42261;52.094;4.326;2023-09-12T02:27:33;22.40;;;11.77;;
56363;SDS011;42261;52.094;4.326;2023-09-12T02:30:17;17.67;;;10.90;;
56363;SDS011;42261;52.094;4.326;2023-09-12T02:33:01;17.55;;;11.77;;
56363;SDS011;42261;52.094;4.326;2023-09-12T02:35:45;23.40;;;12.13;;
56363;SDS011;42261;52.094;4.326;2023-09-12T02:38:29;20.27;;;11.55;;
56363;SDS011;42261;52.094;4.326;2023-09-12T02:41:13;22.65;;;12.90;;
56363;SDS011;42261;52.094;4.326;2023-09-12T02:43:57;22.75;;;12.50;;
56363;SDS011;42261;52.094;4.326;2023-09-12T02:46:41;23.25;;;13.75;;
56363;SDS011;42261;52.094;4.326;2023-09-12T02:49:25;25.75;;;13.57;;
56363;SDS011;42261;52.094;4.326;2023-09-12T02:52:09;24.88;;;13.27;;
56363;SDS011;42261;52.094;4.326;2023-09-12T02:54:54;27.20;;;14.63;;
56363;SDS011;42261;52.094;4.326;2023-09-12T02:57:38;27.73;;;13.77;;
56363;SDS011;42261;52.094;4.326;2023-09-12T03:00:22;27.27;;;14.30;;
56363;SDS011;42261;52.094;4.326;2023-09-12T03:03:06;29.00;;;15.57;;
56363;SDS011;42261;52.094;4.326;2023-09-12T03:06:00;33.40;;;15.48;;
56363;SDS011;42261;52.094;4.326;2023-09-12T03:08:44;24.30;;;14.55;;
56363;SDS011;42261;52.094;4.326;2023-09-12T03:11:28;30.38;;;15.48;;
56363;SDS011;42261;52.094;4.326;2023-09-12T03:14:13;27.63;;;15.52;;
56363;SDS011;42261;52.094;4.326;2023-09-12T03:16:57;33.70;;;16.52;;
56363;SDS011;42261;52.094;4.326;2023-09-12T03:19:41;32.40;;;17.10;;
56363;SDS011;42261;52.094;4.326;2023-09-12T03:22:25;30.98;;;17.00;;
56363;SDS011;42261;52.094;4.326;2023-09-12T03:25:09;39.08;;;18.30;;
56363;SDS011;42261;52.094;4.326;2023-09-12T03:27:53;32.20;;;16.15;;
56363;SDS011;42261;52.094;4.326;2023-09-12T03:30:37;38.97;;;18.48;;
56363;SDS011;42261;52.094;4.326;2023-09-12T03:33:21;35.03;;;18.40;;
56363;SDS011;42261;52.094;4.326;2023-09-12T03:36:06;33.53;;;18.13;;
56363;SDS011;42261;52.094;4.326;2023-09-12T03:38:51;34.28;;;18.33;;
56363;SDS011;42261;52.094;4.326;2023-09-12T03:41:35;36.33;;;19.35;;
56363;SDS011;42261;52.094;4.326;2023-09-12T03:44:19;36.65;;;18.63;;
56363;SDS011;42261;52.094;4.326;2023-09-12T03:47:03;32.60;;;17.58;;
56363;SDS011;42261;52.094;4.326;2023-09-12T03:49:47;30.13;;;17.55;;
56363;SDS011;42261;52.094;4.326;2023-09-12T03:52:31;35.85;;;17.60;;
56363;SDS011;42261;52.094;4.326;2023-09-12T03:55:15;33.83;;;16.60;;
56363;SDS011;42261;52.094;4.326;2023-09-12T03:57:59;32.17;;;17.33;;
56363;SDS011;42261;52.094;4.326;2023-09-12T04:00:46;34.05;;;18.67;;
56363;SDS011;42261;52.094;4.326;2023-09-12T04:03:30;33.25;;;18.92;;
56363;SDS011;42261;52.094;4.326;2023-09-12T04:06:14;32.63;;;17.10;;
56363;SDS011;42261;52.094;4.326;2023-09-12T04:08:58;31.10;;;16.15;;
56363;SDS011;42261;52.094;4.326;2023-09-12T04:11:42;30.58;;;16.45;;
56363;SDS011;42261;52.094;4.326;2023-09-12T04:14:26;32.33;;;17.75;;
56363;SDS011;42261;52.094;4.326;2023-09-12T04:17:10;37.33;;;17.73;;
56363;SDS011;42261;52.094;4.326;2023-09-12T04:19:54;34.05;;;17.80;;
56363;SDS011;42261;52.094;4.326;2023-09-12T04:22:38;31.15;;;16.70;;
56363;SDS011;42261;52.094;4.326;2023-09-12T04:25:22;32.10;;;17.50;;
56363;SDS011;42261;52.094;4.326;2023-09-12T04:28:06;32.22;;;16.02;;
56363;SDS011;42261;52.094;4.326;2023-09-12T04:30:50;31.20;;;16.83;;
56363;SDS011;42261;52.094;4.326;2023-09-12T04:33:34;36.25;;;19.30;;
56363;SDS011;42261;52.094;4.326;2023-09-12T04:36:18;27.60;;;16.05;;
56363;SDS011;42261;52.094;4.326;2023-09-12T04:39:02;34.63;;;16.63;;
56363;SDS011;42261;52.094;4.326;2023-09-12T04:41:46;32.88;;;16.83;;
56363;SDS011;42261;52.094;4.326;2023-09-12T04:44:34;30.67;;;18.20;;
56363;SDS011;42261;52.094;4.326;2023-09-12T04:47:18;37.25;;;18.15;;
56363;SDS011;42261;52.094;4.326;2023-09-12T04:50:02;30.45;;;17.23;;
56363;SDS011;42261;52.094;4.326;2023-09-12T04:52:46;30.00;;;16.35;;
56363;SDS011;42261;52.094;4.326;2023-09-12T04:55:30;32.88;;;16.10;;
56363;SDS011;42261;52.094;4.326;2023-09-12T04:58:14;21.88;;;13.85;;
56363;SDS011;42261;52.094;4.326;2023-09-12T05:00:58;29.73;;;16.55;;
56363;SDS011;42261;52.094;4.326;2023-09-12T05:03:42;27.27;;;15.48;;
56363;SDS011;42261;52.094;4.326;2023-09-12T05:06:26;27.90;;;17.05;;
56363;SDS011;42261;52.094;4.326;2023-09-12T05:09:10;28.02;;;16.40;;
56363;SDS011;42261;52.094;4.326;2023-09-12T05:11:54;28.10;;;16.58;;
56363;SDS011;42261;52.094;4.326;2023-09-12T05:14:38;29.15;;;15.55;;
56363;SDS011;42261;52.094;4.326;2023-09-12T05:17:22;30.25;;;16.63;;
56363;SDS011;42261;52.094;4.326;2023-09-12T05:20:07;28.13;;;15.75;;
56363;SDS011;42261;52.094;4.326;2023-09-12T05:22:51;33.03;;;18.27;;
56363;SDS011;42261;52.094;4.326;2023-09-12T05:25:35;27.42;;;16.70;;
56363;SDS011;42261;52.094;4.326;2023-09-12T05:28:19;26.10;;;15.52;;
56363;SDS011;42261;52.094;4.326;2023-09-12T05:31:03;27.10;;;15.30;;
56363;SDS011;42261;52.094;4.326;2023-09-12T05:33:47;29.23;;;15.23;;
56363;SDS011;42261;52.094;4.326;2023-09-12T05:39:25;31.90;;;16.35;;
56363;SDS011;42261;52.094;4.326;2023-09-12T05:42:09;28.48;;;15.00;;
56363;SDS011;42261;52.094;4.326;2023-09-12T05:44:54;29.45;;;16.58;;
56363;SDS011;42261;52.094;4.326;2023-09-12T05:47:38;25.70;;;14.77;;
56363;SDS011;42261;52.094;4.326;2023-09-12T05:50:22;27.40;;;14.32;;
56363;SDS011;42261;52.094;4.326;2023-09-12T05:53:07;23.85;;;14.52;;
56363;SDS011;42261;52.094;4.326;2023-09-12T05:55:51;25.13;;;14.18;;
56363;SDS011;42261;52.094;4.326;2023-09-12T05:58:35;24.98;;;14.18;;
56363;SDS011;42261;52.094;4.326;2023-09-12T06:01:19;23.90;;;14.38;;
56363;SDS011;42261;52.094;4.326;2023-09-12T06:04:04;22.55;;;14.40;;
56363;SDS011;42261;52.094;4.326;2023-09-12T06:10:05;28.63;;;15.13;;
56363;SDS011;42261;52.094;4.326;2023-09-12T06:12:49;29.17;;;15.45;;
56363;SDS011;42261;52.094;4.326;2023-09-12T06:15:33;33.45;;;16.98;;
56363;SDS011;42261;52.094;4.326;2023-09-12T06:18:17;28.10;;;16.40;;
56363;SDS011;42261;52.094;4.326;2023-09-12T06:21:02;28.20;;;16.30;;
56363;SDS011;42261;52.094;4.326;2023-09-12T06:23:52;29.40;;;17.05;;
56363;SDS011;42261;52.094;4.326;2023-09-12T06:26:51;31.85;;;15.98;;
56363;SDS011;42261;52.094;4.326;2023-09-12T06:29:35;32.95;;;17.52;;
56363;SDS011;42261;52.094;4.326;2023-09-12T06:32:19;32.10;;;16.02;;
56363;SDS011;42261;52.094;4.326;2023-09-12T06:35:04;29.70;;;16.83;;
56363;SDS011;42261;52.094;4.326;2023-09-12T06:37:48;30.83;;;16.40;;
56363;SDS011;42261;52.094;4.326;2023-09-12T06:40:32;32.05;;;15.90;;
56363;SDS011;42261;52.094;4.326;2023-09-12T06:43:16;30.85;;;16.95;;
56363;SDS011;42261;52.094;4.326;2023-09-12T06:46:00;34.20;;;17.30;;
56363;SDS011;42261;52.094;4.326;2023-09-12T06:48:44;30.98;;;16.50;;
56363;SDS011;42261;52.094;4.326;2023-09-12T06:51:29;31.90;;;16.63;;
56363;SDS011;42261;52.094;4.326;2023-09-12T06:54:13;28.25;;;15.63;;
56363;SDS011;42261;52.094;4.326;2023-09-12T06:56:58;27.15;;;16.75;;
56363;SDS011;42261;52.094;4.326;2023-09-12T06:59:43;30.05;;;17.10;;
56363;SDS011;42261;52.094;4.326;2023-09-12T07:02:26;31.50;;;16.17;;
56363;SDS011;42261;52.094;4.326;2023-09-12T07:05:10;28.05;;;16.88;;
56363;SDS011;42261;52.094;4.326;2023-09-12T07:07:54;28.40;;;15.50;;
56363;SDS011;42261;52.094;4.326;2023-09-12T07:10:43;31.52;;;16.25;;
56363;SDS011;42261;52.094;4.326;2023-09-12T07:13:27;31.90;;;18.05;;
56363;SDS011;42261;52.094;4.326;2023-09-12T07:16:11;33.85;;;17.02;;
56363;SDS011;42261;52.094;4.326;2023-09-12T07:18:56;32.75;;;17.58;;
56363;SDS011;42261;52.094;4.326;2023-09-12T07:21:41;34.95;;;17.67;;
56363;SDS011;42261;52.094;4.326;2023-09-12T07:24:25;35.08;;;17.33;;
56363;SDS011;42261;52.094;4.326;2023-09-12T07:27:09;34.10;;;16.67;;
56363;SDS011;42261;52.094;4.326;2023-09-12T07:29:53;32.50;;;17.92;;
56363;SDS011;42261;52.094;4.326;2023-09-12T07:32:37;31.95;;;17.52;;
56363;SDS011;42261;52.094;4.326;2023-09-12T07:35:21;33.33;;;17.85;;
56363;SDS011;42261;52.094;4.326;2023-09-12T07:38:07;35.05;;;18.10;;
56363;SDS011;42261;52.094;4.326;2023-09-12T07:40:52;39.60;;;18.73;;
56363;SDS011;42261;52.094;4.326;2023-09-12T07:43:36;35.95;;;19.65;;
56363;SDS011;42261;52.094;4.326;2023-09-12T07:46:20;41.10;;;20.05;;
56363;SDS011;42261;52.094;4.326;2023-09-12T07:49:04;38.25;;;20.13;;
56363;SDS011;42261;52.094;4.326;2023-09-12T07:51:48;35.38;;;19.98;;
56363;SDS011;42261;52.094;4.326;2023-09-12T07:54:31;36.10;;;19.20;;
56363;SDS011;42261;52.094;4.326;2023-09-12T07:57:16;34.35;;;19.42;;
56363;SDS011;42261;52.094;4.326;2023-09-12T08:00:03;32.28;;;19.55;;
56363;SDS011;42261;52.094;4.326;2023-09-12T08:02:49;34.75;;;18.45;;
56363;SDS011;42261;52.094;4.326;2023-09-12T08:05:34;33.67;;;19.73;;
56363;SDS011;42261;52.094;4.326;2023-09-12T08:08:17;36.38;;;20.83;;
56363;SDS011;42261;52.094;4.326;2023-09-12T08:11:01;32.42;;;19.75;;
56363;SDS011;42261;52.094;4.326;2023-09-12T08:13:48;35.53;;;20.33;;
56363;SDS011;42261;52.094;4.326;2023-09-12T08:16:33;35.10;;;19.27;;
56363;SDS011;42261;52.094;4.326;2023-09-12T08:19:17;29.27;;;20.33;;
56363;SDS011;42261;52.094;4.326;2023-09-12T08:22:01;31.13;;;19.85;;
56363;SDS011;42261;52.094;4.326;2023-09-12T08:24:44;31.02;;;19.33;;
56363;SDS011;42261;52.094;4.326;2023-09-12T08:27:29;30.02;;;18.67;;
56363;SDS011;42261;52.094;4.326;2023-09-12T08:30:13;29.40;;;18.42;;
56363;SDS011;42261;52.094;4.326;2023-09-12T08:32:57;25.60;;;16.60;;
56363;SDS011;42261;52.094;4.326;2023-09-12T08:35:41;24.67;;;16.65;;
56363;SDS011;42261;52.094;4.326;2023-09-12T08:38:25;23.38;;;15.73;;
56363;SDS011;42261;52.094;4.326;2023-09-12T08:41:09;22.25;;;15.43;;
56363;SDS011;42261;52.094;4.326;2023-09-12T08:43:53;22.23;;;14.77;;
56363;SDS011;42261;52.094;4.326;2023-09-12T08:46:40;24.73;;;14.80;;
56363;SDS011;42261;52.094;4.326;2023-09-12T08:49:25;24.15;;;16.40;;
56363;SDS011;42261;52.094;4.326;2023-09-12T08:52:10;23.55;;;16.17;;
56363;SDS011;42261;52.094;4.326;2023-09-12T08:54:54;21.98;;;13.75;;
56363;SDS011;42261;52.094;4.326;2023-09-12T08:57:39;26.75;;;15.68;;
56363;SDS011;42261;52.094;4.326;2023-09-12T09:00:23;20.77;;;13.95;;
56363;SDS011;42261;52.094;4.326;2023-09-12T09:03:08;26.02;;;14.60;;
56363;SDS011;42261;52.094;4.326;2023-09-12T09:05:52;24.50;;;16.17;;
56363;SDS011;42261;52.094;4.326;2023-09-12T09:08:39;24.05;;;16.55;;
56363;SDS011;42261;52.094;4.326;2023-09-12T09:11:23;25.98;;;15.45;;
56363;SDS011;42261;52.094;4.326;2023-09-12T09:14:11;23.33;;;15.07;;
56363;SDS011;42261;52.094;4.326;2023-09-12T09:16:55;21.08;;;14.45;;
56363;SDS011;42261;52.094;4.326;2023-09-12T09:19:42;18.52;;;13.45;;
56363;SDS011;42261;52.094;4.326;2023-09-12T09:22:27;19.60;;;13.45;;
56363;SDS011;42261;52.094;4.326;2023-09-12T09:25:11;20.27;;;14.27;;
56363;SDS011;42261;52.094;4.326;2023-09-12T09:28:01;20.95;;;13.82;;
56363;SDS011;42261;52.094;4.326;2023-09-12T09:30:47;21.42;;;13.48;;
56363;SDS011;42261;52.094;4.326;2023-09-12T09:33:34;19.80;;;12.45;;
56363;SDS011;42261;52.094;4.326;2023-09-12T09:36:19;19.92;;;12.10;;
56363;SDS011;42261;52.094;4.326;2023-09-12T09:39:05;21.48;;;11.10;;
56363;SDS011;42261;52.094;4.326;2023-09-12T09:41:49;17.58;;;9.70;;
56363;SDS011;42261;52.094;4.326;2023-09-12T09:44:34;13.80;;;9.15;;
56363;SDS011;42261;52.094;4.326;2023-09-12T09:47:18;12.32;;;8.55;;
56363;SDS011;42261;52.094;4.326;2023-09-12T09:50:03;12.20;;;6.75;;
56363;SDS011;42261;52.094;4.326;2023-09-12T09:52:52;13.73;;;7.32;;
56363;SDS011;42261;52.094;4.326;2023-09-12T09:55:37;11.57;;;6.80;;
56363;SDS011;42261;52.094;4.326;2023-09-12T09:58:22;10.18;;;5.85;;
56363;SDS011;42261;52.094;4.326;2023-09-12T10:01:07;12.30;;;6.72;;
56363;SDS011;42261;52.094;4.326;2023-09-12T10:03:51;10.73;;;6.40;;
56363;SDS011;42261;52.094;4.326;2023-09-12T10:06:36;12.07;;;6.05;;
56363;SDS011;42261;52.094;4.326;2023-09-12T10:09:20;11.88;;;5.75;;
56363;SDS011;42261;52.094;4.326;2023-09-12T10:12:06;10.93;;;5.10;;
56363;SDS011;42261;52.094;4.326;2023-09-12T10:14:50;11.32;;;5.88;;
56363;SDS011;42261;52.094;4.326;2023-09-12T10:17:35;9.90;;;5.43;;
56363;SDS011;42261;52.094;4.326;2023-09-12T10:20:21;11.40;;;5.32;;
56363;SDS011;42261;52.094;4.326;2023-09-12T10:23:11;8.88;;;5.88;;
56363;SDS011;42261;52.094;4.326;2023-09-12T10:25:58;11.05;;;4.80;;
56363;SDS011;42261;52.094;4.326;2023-09-12T10:28:43;11.57;;;4.80;;
56363;SDS011;42261;52.094;4.326;2023-09-12T10:31:27;14.30;;;4.45;;
56363;SDS011;42261;52.094;4.326;2023-09-12T10:34:12;10.82;;;4.63;;
56363;SDS011;42261;52.094;4.326;2023-09-12T10:36:57;12.43;;;4.93;;
56363;SDS011;42261;52.094;4.326;2023-09-12T10:39:43;13.85;;;4.68;;
56363;SDS011;42261;52.094;4.326;2023-09-12T10:42:27;11.82;;;5.00;;
56363;SDS011;42261;52.094;4.326;2023-09-12T10:45:11;12.82;;;5.50;;
56363;SDS011;42261;52.094;4.326;2023-09-12T10:47:56;20.35;;;12.55;;
56363;SDS011;42261;52.094;4.326;2023-09-12T10:50:40;12.05;;;5.97;;
56363;SDS011;42261;52.094;4.326;2023-09-12T10:53:26;9.20;;;4.45;;
56363;SDS011;42261;52.094;4.326;2023-09-12T10:56:15;11.43;;;5.75;;
56363;SDS011;42261;52.094;4.326;2023-09-12T10:59:08;9.07;;;5.35;;
56363;SDS011;42261;52.094;4.326;2023-09-12T11:01:56;9.30;;;5.30;;
56363;SDS011;42261;52.094;4.326;2023-09-12T11:05:00;9.35;;;5.07;;
56363;SDS011;42261;52.094;4.326;2023-09-12T11:07:45;9.95;;;5.18;;
56363;SDS011;42261;52.094;4.326;2023-09-12T11:10:29;10.23;;;5.38;;
56363;SDS011;42261;52.094;4.326;2023-09-12T11:13:18;9.88;;;4.50;;
56363;SDS011;42261;52.094;4.326;2023-09-12T11:16:15;13.70;;;5.70;;
56363;SDS011;42261;52.094;4.326;2023-09-12T11:19:11;13.45;;;5.97;;
56363;SDS011;42261;52.094;4.326;2023-09-12T11:21:55;7.53;;;4.88;;
56363;SDS011;42261;52.094;4.326;2023-09-12T11:24:43;8.32;;;4.53;;
56363;SDS011;42261;52.094;4.326;2023-09-12T11:27:43;9.50;;;5.45;;
56363;SDS011;42261;52.094;4.326;2023-09-12T11:30:27;12.57;;;5.00;;
56363;SDS011;42261;52.094;4.326;2023-09-12T11:33:15;10.48;;;5.13;;
56363;SDS011;42261;52.094;4.326;2023-09-12T11:35:59;9.27;;;5.38;;
56363;SDS011;42261;52.094;4.326;2023-09-12T11:38:48;12.23;;;5.50;;
56363;SDS011;42261;52.094;4.326;2023-09-12T11:41:39;11.63;;;6.78;;
56363;SDS011;42261;52.094;4.326;2023-09-12T11:44:23;12.88;;;5.35;;
56363;SDS011;42261;52.094;4.326;2023-09-12T11:47:07;11.27;;;5.32;;
56363;SDS011;42261;52.094;4.326;2023-09-12T11:49:53;17.52;;;6.13;;
56363;SDS011;42261;52.094;4.326;2023-09-12T11:52:36;10.18;;;4.93;;
56363;SDS011;42261;52.094;4.326;2023-09-12T11:55:24;11.97;;;6.17;;
56363;SDS011;42261;52.094;4.326;2023-09-12T11:58:07;10.48;;;6.20;;
56363;SDS011;42261;52.094;4.326;2023-09-12T12:00:52;9.68;;;5.65;;
56363;SDS011;42261;52.094;4.326;2023-09-12T12:03:36;13.00;;;5.22;;
56363;SDS011;42261;52.094;4.326;2023-09-12T12:06:20;10.18;;;5.25;;
56363;SDS011;42261;52.094;4.326;2023-09-12T12:09:04;10.30;;;4.50;;
56363;SDS011;42261;52.094;4.326;2023-09-12T12:11:48;10.10;;;6.03;;
56363;SDS011;42261;52.094;4.326;2023-09-12T12:14:33;6.93;;;5.03;;
56363;SDS011;42261;52.094;4.326;2023-09-12T12:17:17;12.93;;;5.13;;
56363;SDS011;42261;52.094;4.326;2023-09-12T12:20:01;10.15;;;4.38;;
56363;SDS011;42261;52.094;4.326;2023-09-12T12:22:50;9.98;;;5.43;;
56363;SDS011;42261;52.094;4.326;2023-09-12T12:25:35;12.48;;;6.00;;
56363;SDS011;42261;52.094;4.326;2023-09-12T12:28:19;10.20;;;4.38;;
56363;SDS011;42261;52.094;4.326;2023-09-12T12:31:03;9.35;;;4.72;;
56363;SDS011;42261;52.094;4.326;2023-09-12T12:33:48;6.68;;;4.25;;
56363;SDS011;42261;52.094;4.326;2023-09-12T12:36:32;7.82;;;4.28;;
56363;SDS011;42261;52.094;4.326;2023-09-12T12:39:16;7.88;;;4.57;;
56363;SDS011;42261;52.094;4.326;2023-09-12T12:42:00;8.88;;;5.28;;
56363;SDS011;42261;52.094;4.326;2023-09-12T12:44:44;10.40;;;5.18;;
56363;SDS011;42261;52.094;4.326;2023-09-12T12:47:29;9.20;;;4.45;;
56363;SDS011;42261;52.094;4.326;2023-09-12T12:50:15;8.82;;;4.93;;
56363;SDS011;42261;52.094;4.326;2023-09-12T12:53:01;9.07;;;4.75;;
56363;SDS011;42261;52.094;4.326;2023-09-12T12:55:45;9.60;;;4.80;;
56363;SDS011;42261;52.094;4.326;2023-09-12T12:58:30;7.53;;;3.75;;
56363;SDS011;42261;52.094;4.326;2023-09-12T13:01:15;7.25;;;4.05;;
56363;SDS011;42261;52.094;4.326;2023-09-12T13:03:59;7.13;;;4.88;;
56363;SDS011;42261;52.094;4.326;2023-09-12T13:06:43;10.25;;;5.00;;
56363;SDS011;42261;52.094;4.326;2023-09-12T13:09:27;6.82;;;4.38;;
56363;SDS011;42261;52.094;4.326;2023-09-12T13:12:12;9.68;;;4.78;;
56363;SDS011;42261;52.094;4.326;2023-09-12T13:14:58;9.68;;;4.10;;
56363;SDS011;42261;52.094;4.326;2023-09-12T13:17:43;8.80;;;4.32;;
56363;SDS011;42261;52.094;4.326;2023-09-12T13:20:27;7.88;;;4.72;;
56363;SDS011;42261;52.094;4.326;2023-09-12T13:23:11;11.07;;;4.55;;
56363;SDS011;42261;52.094;4.326;2023-09-12T13:25:56;7.88;;;4.20;;
56363;SDS011;42261;52.094;4.326;2023-09-12T13:28:40;8.65;;;4.70;;
56363;SDS011;42261;52.094;4.326;2023-09-12T13:31:24;7.05;;;3.83;;
56363;SDS011;42261;52.094;4.326;2023-09-12T13:34:09;9.30;;;4.35;;
56363;SDS011;42261;52.094;4.326;2023-09-12T13:36:53;6.45;;;4.22;;
56363;SDS011;42261;52.094;4.326;2023-09-12T13:39:37;7.53;;;3.72;;
56363;SDS011;42261;52.094;4.326;2023-09-12T13:42:21;8.23;;;4.25;;
56363;SDS011;42261;52.094;4.326;2023-09-12T13:45:05;8.98;;;4.22;;
56363;SDS011;42261;52.094;4.326;2023-09-12T13:47:50;11.13;;;6.07;;
56363;SDS011;42261;52.094;4.326;2023-09-12T13:50:34;9.13;;;5.10;;
56363;SDS011;42261;52.094;4.326;2023-09-12T13:53:18;8.77;;;4.25;;
56363;SDS011;42261;52.094;4.326;2023-09-12T13:56:02;10.80;;;4.07;;
56363;SDS011;42261;52.094;4.326;2023-09-12T13:58:47;8.68;;;4.15;;
56363;SDS011;42261;52.094;4.326;2023-09-12T14:01:31;12.60;;;5.78;;
56363;SDS011;42261;52.094;4.326;2023-09-12T14:04:15;8.80;;;4.18;;
56363;SDS011;42261;52.094;4.326;2023-09-12T14:07:00;7.53;;;4.18;;
56363;SDS011;42261;52.094;4.326;2023-09-12T14:09:44;9.20;;;5.00;;
56363;SDS011;42261;52.094;4.326;2023-09-12T14:12:28;14.30;;;6.47;;
56363;SDS011;42261;52.094;4.326;2023-09-12T14:15:12;8.70;;;3.60;;
56363;SDS011;42261;52.094;4.326;2023-09-12T14:17:58;6.13;;;3.20;;
56363;SDS011;42261;52.094;4.326;2023-09-12T14:20:42;7.20;;;3.63;;
56363;SDS011;42261;52.094;4.326;2023-09-12T14:23:26;9.43;;;4.05;;
56363;SDS011;42261;52.094;4.326;2023-09-12T14:26:10;8.82;;;3.75;;
56363;SDS011;42261;52.094;4.326;2023-09-12T14:28:55;5.82;;;3.42;;
56363;SDS011;42261;52.094;4.326;2023-09-12T14:31:39;5.47;;;2.97;;
56363;SDS011;42261;52.094;4.326;2023-09-12T14:34:24;10.60;;;4.57;;
56363;SDS011;42261;52.094;4.326;2023-09-12T14:37:12;9.65;;;3.67;;
56363;SDS011;42261;52.094;4.326;2023-09-12T14:39:56;7.30;;;2.63;;
56363;SDS011;42261;52.094;4.326;2023-09-12T14:42:40;8.75;;;3.83;;
56363;SDS011;42261;52.094;4.326;2023-09-12T14:45:24;7.75;;;3.42;;
56363;SDS011;42261;52.094;4.326;2023-09-12T14:48:09;8.30;;;3.33;;
56363;SDS011;42261;52.094;4.326;2023-09-12T14:50:53;6.78;;;3.53;;
56363;SDS011;42261;52.094;4.326;2023-09-12T14:53:37;7.72;;;2.83;;
56363;SDS011;42261;52.094;4.326;2023-09-12T14:56:23;6.78;;;3.55;;
56363;SDS011;42261;52.094;4.326;2023-09-12T14:59:07;8.43;;;3.17;;
56363;SDS011;42261;52.094;4.326;2023-09-12T15:01:52;6.28;;;3.75;;
56363;SDS011;42261;52.094;4.326;2023-09-12T15:04:33;6.03;;;2.80;;
56363;SDS011;42261;52.094;4.326;2023-09-12T15:07:18;6.43;;;3.40;;
56363;SDS011;42261;52.094;4.326;2023-09-12T15:10:02;6.38;;;3.67;;
56363;SDS011;42261;52.094;4.326;2023-09-12T15:12:46;9.25;;;3.03;;
56363;SDS011;42261;52.094;4.326;2023-09-12T15:15:30;6.75;;;2.58;;
56363;SDS011;42261;52.094;4.326;2023-09-12T15:18:14;6.35;;;2.72;;
56363;SDS011;42261;52.094;4.326;2023-09-12T15:20:58;5.53;;;2.55;;
56363;SDS011;42261;52.094;4.326;2023-09-12T15:26:25;6.53;;;2.70;;
56363;SDS011;42261;52.094;4.326;2023-09-12T15:29:10;4.05;;;2.22;;
56363;SDS011;42261;52.094;4.326;2023-09-12T15:31:53;7.28;;;3.00;;
56363;SDS011;42261;52.094;4.326;2023-09-12T15:34:38;7.88;;;2.90;;
56363;SDS011;42261;52.094;4.326;2023-09-12T15:37:22;8.73;;;3.33;;
56363;SDS011;42261;52.094;4.326;2023-09-12T15:40:06;5.28;;;2.88;;
56363;SDS011;42261;52.094;4.326;2023-09-12T15:45:40;9.13;;;3.83;;
56363;SDS011;42261;52.094;4.326;2023-09-12T15:48:25;5.00;;;3.17;;
56363;SDS011;42261;52.094;4.326;2023-09-12T15:51:08;7.80;;;2.83;;
56363;SDS011;42261;52.094;4.326;2023-09-12T15:53:53;5.60;;;3.13;;
56363;SDS011;42261;52.094;4.326;2023-09-12T15:56:38;5.65;;;3.10;;
56363;SDS011;42261;52.094;4.326;2023-09-12T15:59:22;5.20;;;3.45;;
56363;SDS011;42261;52.094;4.326;2023-09-12T16:02:09;9.68;;;3.67;;
56363;SDS011;42261;52.094;4.326;2023-09-12T16:04:53;7.32;;;3.40;;
56363;SDS011;42261;52.094;4.326;2023-09-12T16:07:37;6.80;;;3.45;;
56363;SDS011;42261;52.094;4.326;2023-09-12T16:10:21;7.63;;;3.35;;
56363;SDS011;42261;52.094;4.326;2023-09-12T16:13:05;6.35;;;3.08;;
56363;SDS011;42261;52.094;4.326;2023-09-12T16:15:49;7.45;;;3.72;;
56363;SDS011;42261;52.094;4.326;2023-09-12T16:18:33;6.82;;;3.85;;
56363;SDS011;42261;52.094;4.326;2023-09-12T16:21:18;7.45;;;4.35;;
56363;SDS011;42261;52.094;4.326;2023-09-12T16:24:03;9.57;;;3.58;;
56363;SDS011;42261;52.094;4.326;2023-09-12T16:26:47;10.20;;;3.70;;
56363;SDS011;42261;52.094;4.326;2023-09-12T16:29:31;6.25;;;3.67;;
56363;SDS011;42261;52.094;4.326;2023-09-12T16:32:17;6.97;;;3.20;;